sensor_id;sensor_type;location;lat;lon;timestamp;P1;durP1;ratioP1;P2;durP2;ratioP2
24637;SDS011;12773;50.162;8.548;2022-09-19T00:02:25;2.75;;;0.57;;
24637;SDS011;12773;50.162;8.548;2022-09-19T00:05:12;1.57;;;0.60;;
24637;SDS011;12773;50.162;8.548;2022-09-19T00:08:00;2.60;;;0.80;;
24637;SDS011;12773;50.162;8.548;2022-09-19T00:10:48;2.92;;;0.60;;
24637;SDS011;12773;50.162;8.548;2022-09-19T00:13:37;4.25;;;0.60;;
24637;SDS011;12773;50.162;8.548;2022-09-19T00:16:28;2.75;;;0.50;;
24637;SDS011;12773;50.162;8.548;2022-09-19T00:19:17;2.17;;;0.53;;
24637;SDS011;12773;50.162;8.548;2022-09-19T00:22:05;7.47;;;1.00;;
24637;SDS011;12773;50.162;8.548;2022-09-19T00:24:54;1.70;;;0.95;;
24637;SDS011;12773;50.162;8.548;2022-09-19T00:27:42;8.68;;;1.00;;
24637;SDS011;12773;50.162;8.548;2022-09-19T00:30:29;1.60;;;0.60;;
24637;SDS011;12773;50.162;8.548;2022-09-19T00:33:16;2.85;;;0.78;;
24637;SDS011;12773;50.162;8.548;2022-09-19T00:36:07;1.72;;;0.70;;
24637;SDS011;12773;50.162;8.548;2022-09-19T00:38:54;3.35;;;0.82;;
24637;SDS011;12773;50.162;8.548;2022-09-19T00:41:42;3.47;;;0.80;;
24637;SDS011;12773;50.162;8.548;2022-09-19T00:47:25;5.20;;;2.45;;
24637;SDS011;12773;50.162;8.548;2022-09-19T00:50:27;4.33;;;1.00;;
24637;SDS011;12773;50.162;8.548;2022-09-19T00:53:17;7.47;;;1.30;;
24637;SDS011;12773;50.162;8.548;2022-09-19T00:56:07;5.03;;;1.40;;
24637;SDS011;12773;50.162;8.548;2022-09-19T00:58:55;4.65;;;1.15;;
24637;SDS011;12773;50.162;8.548;2022-09-19T01:01:44;7.00;;;1.32;;
24637;SDS011;12773;50.162;8.548;2022-09-19T01:04:34;4.87;;;1.02;;
24637;SDS011;12773;50.162;8.548;2022-09-19T01:10:49;4.03;;;1.02;;
24637;SDS011;12773;50.162;8.548;2022-09-19T01:13:38;5.50;;;1.20;;
24637;SDS011;12773;50.162;8.548;2022-09-19T01:16:29;14.28;;;1.35;;
24637;SDS011;12773;50.162;8.548;2022-09-19T01:25:54;8.83;;;1.67;;
24637;SDS011;12773;50.162;8.548;2022-09-19T01:28:41;9.98;;;1.57;;
24637;SDS011;12773;50.162;8.548;2022-09-19T01:31:31;5.83;;;1.42;;
24637;SDS011;12773;50.162;8.548;2022-09-19T01:37:21;4.92;;;1.22;;
24637;SDS011;12773;50.162;8.548;2022-09-19T01:40:11;7.20;;;1.60;;
24637;SDS011;12773;50.162;8.548;2022-09-19T01:43:00;8.08;;;1.72;;
24637;SDS011;12773;50.162;8.548;2022-09-19T01:45:47;5.60;;;1.40;;
24637;SDS011;12773;50.162;8.548;2022-09-19T01:49:25;8.80;;;1.72;;
24637;SDS011;12773;50.162;8.548;2022-09-19T01:51:34;10.43;;;2.33;;
24637;SDS011;12773;50.162;8.548;2022-09-19T01:57:41;4.83;;;1.40;;
24637;SDS011;12773;50.162;8.548;2022-09-19T02:00:46;12.58;;;2.15;;
24637;SDS011;12773;50.162;8.548;2022-09-19T02:03:45;8.43;;;2.37;;
24637;SDS011;12773;50.162;8.548;2022-09-19T02:06:40;8.65;;;1.85;;
24637;SDS011;12773;50.162;8.548;2022-09-19T02:09:42;9.70;;;2.50;;
24637;SDS011;12773;50.162;8.548;2022-09-19T02:12:31;10.40;;;2.58;;
24637;SDS011;12773;50.162;8.548;2022-09-19T02:15:25;5.78;;;2.30;;
24637;SDS011;12773;50.162;8.548;2022-09-19T02:18:21;8.05;;;2.87;;
24637;SDS011;12773;50.162;8.548;2022-09-19T02:21:10;8.00;;;2.08;;
24637;SDS011;12773;50.162;8.548;2022-09-19T02:23:59;6.78;;;2.10;;
24637;SDS011;12773;50.162;8.548;2022-09-19T02:26:49;10.60;;;2.47;;
24637;SDS011;12773;50.162;8.548;2022-09-19T02:29:40;8.35;;;2.72;;
24637;SDS011;12773;50.162;8.548;2022-09-19T02:32:31;8.43;;;2.50;;
24637;SDS011;12773;50.162;8.548;2022-09-19T02:41:43;11.93;;;2.50;;
24637;SDS011;12773;50.162;8.548;2022-09-19T02:45:04;13.20;;;3.35;;
24637;SDS011;12773;50.162;8.548;2022-09-19T02:48:07;9.90;;;2.70;;
24637;SDS011;12773;50.162;8.548;2022-09-19T02:51:12;12.00;;;2.92;;
24637;SDS011;12773;50.162;8.548;2022-09-19T02:53:59;13.60;;;2.95;;
24637;SDS011;12773;50.162;8.548;2022-09-19T02:56:54;11.03;;;3.37;;
24637;SDS011;12773;50.162;8.548;2022-09-19T02:59:45;15.83;;;3.37;;
24637;SDS011;12773;50.162;8.548;2022-09-19T03:02:39;15.28;;;3.17;;
24637;SDS011;12773;50.162;8.548;2022-09-19T03:05:26;8.93;;;3.00;;
24637;SDS011;12773;50.162;8.548;2022-09-19T03:08:15;11.03;;;2.92;;
24637;SDS011;12773;50.162;8.548;2022-09-19T03:11:03;12.35;;;3.10;;
24637;SDS011;12773;50.162;8.548;2022-09-19T03:13:52;11.33;;;3.70;;
24637;SDS011;12773;50.162;8.548;2022-09-19T03:16:42;15.75;;;3.95;;
24637;SDS011;12773;50.162;8.548;2022-09-19T03:19:32;11.75;;;3.30;;
24637;SDS011;12773;50.162;8.548;2022-09-19T03:22:21;16.02;;;3.90;;
24637;SDS011;12773;50.162;8.548;2022-09-19T03:25:09;11.68;;;3.67;;
24637;SDS011;12773;50.162;8.548;2022-09-19T03:27:59;16.67;;;3.25;;
24637;SDS011;12773;50.162;8.548;2022-09-19T03:30:46;15.15;;;3.75;;
24637;SDS011;12773;50.162;8.548;2022-09-19T03:33:33;10.53;;;3.35;;
24637;SDS011;12773;50.162;8.548;2022-09-19T03:36:22;10.08;;;3.83;;
24637;SDS011;12773;50.162;8.548;2022-09-19T03:39:11;14.83;;;3.60;;
24637;SDS011;12773;50.162;8.548;2022-09-19T03:41:59;14.30;;;4.72;;
24637;SDS011;12773;50.162;8.548;2022-09-19T03:44:46;15.23;;;3.72;;
24637;SDS011;12773;50.162;8.548;2022-09-19T03:47:33;10.15;;;3.40;;
24637;SDS011;12773;50.162;8.548;2022-09-19T03:50:21;15.00;;;3.67;;
24637;SDS011;12773;50.162;8.548;2022-09-19T03:53:09;10.38;;;3.87;;
24637;SDS011;12773;50.162;8.548;2022-09-19T03:55:57;13.68;;;3.40;;
24637;SDS011;12773;50.162;8.548;2022-09-19T03:58:44;13.18;;;3.92;;
24637;SDS011;12773;50.162;8.548;2022-09-19T04:01:32;8.78;;;3.00;;
24637;SDS011;12773;50.162;8.548;2022-09-19T04:04:20;11.05;;;3.33;;
24637;SDS011;12773;50.162;8.548;2022-09-19T04:07:07;10.53;;;3.02;;
24637;SDS011;12773;50.162;8.548;2022-09-19T04:09:55;11.68;;;3.72;;
24637;SDS011;12773;50.162;8.548;2022-09-19T04:12:42;9.35;;;3.40;;
24637;SDS011;12773;50.162;8.548;2022-09-19T04:15:30;7.25;;;2.90;;
24637;SDS011;12773;50.162;8.548;2022-09-19T04:18:17;13.10;;;3.75;;
24637;SDS011;12773;50.162;8.548;2022-09-19T04:21:06;9.20;;;3.22;;
24637;SDS011;12773;50.162;8.548;2022-09-19T04:23:54;22.62;;;4.00;;
24637;SDS011;12773;50.162;8.548;2022-09-19T04:26:42;9.40;;;3.70;;
24637;SDS011;12773;50.162;8.548;2022-09-19T04:29:30;12.65;;;3.62;;
24637;SDS011;12773;50.162;8.548;2022-09-19T04:32:17;13.45;;;4.33;;
24637;SDS011;12773;50.162;8.548;2022-09-19T04:35:06;11.83;;;3.72;;
24637;SDS011;12773;50.162;8.548;2022-09-19T04:37:53;9.08;;;3.72;;
24637;SDS011;12773;50.162;8.548;2022-09-19T04:40:41;12.60;;;3.52;;
24637;SDS011;12773;50.162;8.548;2022-09-19T04:43:33;10.85;;;3.92;;
24637;SDS011;12773;50.162;8.548;2022-09-19T04:46:21;17.52;;;3.85;;
24637;SDS011;12773;50.162;8.548;2022-09-19T04:49:09;9.98;;;3.90;;
24637;SDS011;12773;50.162;8.548;2022-09-19T04:51:58;13.95;;;3.80;;
24637;SDS011;12773;50.162;8.548;2022-09-19T04:54:45;8.75;;;3.98;;
24637;SDS011;12773;50.162;8.548;2022-09-19T04:57:33;15.43;;;3.98;;
24637;SDS011;12773;50.162;8.548;2022-09-19T05:00:20;9.55;;;3.77;;
24637;SDS011;12773;50.162;8.548;2022-09-19T05:03:10;10.63;;;3.92;;
24637;SDS011;12773;50.162;8.548;2022-09-19T05:05:59;8.55;;;3.65;;
24637;SDS011;12773;50.162;8.548;2022-09-19T05:08:48;12.18;;;4.33;;
24637;SDS011;12773;50.162;8.548;2022-09-19T05:11:36;14.50;;;4.40;;
24637;SDS011;12773;50.162;8.548;2022-09-19T05:14:25;8.93;;;3.90;;
24637;SDS011;12773;50.162;8.548;2022-09-19T05:17:12;13.22;;;4.33;;
24637;SDS011;12773;50.162;8.548;2022-09-19T05:19:59;10.90;;;3.77;;
24637;SDS011;12773;50.162;8.548;2022-09-19T05:22:48;16.20;;;4.97;;
24637;SDS011;12773;50.162;8.548;2022-09-19T05:25:36;12.40;;;4.67;;
24637;SDS011;12773;50.162;8.548;2022-09-19T05:28:26;12.90;;;4.65;;
24637;SDS011;12773;50.162;8.548;2022-09-19T05:31:13;12.10;;;4.70;;
24637;SDS011;12773;50.162;8.548;2022-09-19T05:34:02;10.23;;;4.30;;
24637;SDS011;12773;50.162;8.548;2022-09-19T05:36:50;12.88;;;4.40;;
24637;SDS011;12773;50.162;8.548;2022-09-19T05:39:37;10.55;;;4.87;;
24637;SDS011;12773;50.162;8.548;2022-09-19T05:42:25;9.58;;;4.55;;
24637;SDS011;12773;50.162;8.548;2022-09-19T05:45:12;13.60;;;4.90;;
24637;SDS011;12773;50.162;8.548;2022-09-19T05:48:01;9.90;;;4.22;;
24637;SDS011;12773;50.162;8.548;2022-09-19T05:50:53;9.08;;;4.60;;
24637;SDS011;12773;50.162;8.548;2022-09-19T05:53:40;13.68;;;4.37;;
24637;SDS011;12773;50.162;8.548;2022-09-19T05:56:41;9.83;;;4.35;;
24637;SDS011;12773;50.162;8.548;2022-09-19T05:59:30;12.93;;;4.62;;
24637;SDS011;12773;50.162;8.548;2022-09-19T06:02:17;8.90;;;4.92;;
24637;SDS011;12773;50.162;8.548;2022-09-19T06:05:05;12.03;;;4.62;;
24637;SDS011;12773;50.162;8.548;2022-09-19T06:07:53;12.45;;;4.92;;
24637;SDS011;12773;50.162;8.548;2022-09-19T06:10:43;13.35;;;5.28;;
24637;SDS011;12773;50.162;8.548;2022-09-19T06:13:33;14.23;;;5.20;;
24637;SDS011;12773;50.162;8.548;2022-09-19T06:16:38;11.38;;;5.28;;
24637;SDS011;12773;50.162;8.548;2022-09-19T06:19:27;13.05;;;4.45;;
24637;SDS011;12773;50.162;8.548;2022-09-19T06:22:15;10.88;;;4.15;;
24637;SDS011;12773;50.162;8.548;2022-09-19T06:25:02;9.70;;;4.25;;
24637;SDS011;12773;50.162;8.548;2022-09-19T06:27:53;12.13;;;4.80;;
24637;SDS011;12773;50.162;8.548;2022-09-19T06:30:42;12.93;;;4.20;;
24637;SDS011;12773;50.162;8.548;2022-09-19T06:33:30;13.83;;;4.30;;
24637;SDS011;12773;50.162;8.548;2022-09-19T06:36:18;13.20;;;5.05;;
24637;SDS011;12773;50.162;8.548;2022-09-19T06:39:05;10.75;;;4.25;;
24637;SDS011;12773;50.162;8.548;2022-09-19T06:41:54;9.35;;;4.60;;
24637;SDS011;12773;50.162;8.548;2022-09-19T06:44:41;13.03;;;4.90;;
24637;SDS011;12773;50.162;8.548;2022-09-19T06:47:28;14.75;;;4.50;;
24637;SDS011;12773;50.162;8.548;2022-09-19T06:50:16;12.10;;;4.92;;
24637;SDS011;12773;50.162;8.548;2022-09-19T06:53:03;11.05;;;4.70;;
24637;SDS011;12773;50.162;8.548;2022-09-19T06:55:50;19.50;;;5.53;;
24637;SDS011;12773;50.162;8.548;2022-09-19T06:58:38;12.28;;;4.83;;
24637;SDS011;12773;50.162;8.548;2022-09-19T07:01:26;14.13;;;5.60;;
24637;SDS011;12773;50.162;8.548;2022-09-19T07:04:13;10.35;;;4.40;;
24637;SDS011;12773;50.162;8.548;2022-09-19T07:07:00;9.95;;;4.87;;
24637;SDS011;12773;50.162;8.548;2022-09-19T07:09:47;10.03;;;5.12;;
24637;SDS011;12773;50.162;8.548;2022-09-19T07:12:38;11.73;;;4.80;;
24637;SDS011;12773;50.162;8.548;2022-09-19T07:15:25;13.48;;;5.17;;
24637;SDS011;12773;50.162;8.548;2022-09-19T07:18:13;12.07;;;4.53;;
24637;SDS011;12773;50.162;8.548;2022-09-19T07:21:00;14.68;;;4.72;;
24637;SDS011;12773;50.162;8.548;2022-09-19T07:23:47;12.75;;;4.53;;
24637;SDS011;12773;50.162;8.548;2022-09-19T07:26:36;13.80;;;4.80;;
24637;SDS011;12773;50.162;8.548;2022-09-19T07:29:25;9.30;;;4.53;;
24637;SDS011;12773;50.162;8.548;2022-09-19T07:32:12;16.65;;;5.30;;
24637;SDS011;12773;50.162;8.548;2022-09-19T07:34:59;9.03;;;5.67;;
24637;SDS011;12773;50.162;8.548;2022-09-19T07:37:50;11.93;;;5.25;;
24637;SDS011;12773;50.162;8.548;2022-09-19T07:40:37;12.50;;;5.15;;
24637;SDS011;12773;50.162;8.548;2022-09-19T07:43:25;10.30;;;4.80;;
24637;SDS011;12773;50.162;8.548;2022-09-19T07:46:12;11.80;;;4.55;;
24637;SDS011;12773;50.162;8.548;2022-09-19T07:49:01;9.05;;;5.30;;
24637;SDS011;12773;50.162;8.548;2022-09-19T07:51:50;16.50;;;5.00;;
24637;SDS011;12773;50.162;8.548;2022-09-19T07:54:37;10.05;;;4.65;;
24637;SDS011;12773;50.162;8.548;2022-09-19T07:57:24;15.45;;;5.05;;
24637;SDS011;12773;50.162;8.548;2022-09-19T08:00:12;10.98;;;4.72;;
24637;SDS011;12773;50.162;8.548;2022-09-19T08:03:01;8.68;;;4.03;;
24637;SDS011;12773;50.162;8.548;2022-09-19T08:05:51;10.45;;;4.00;;
24637;SDS011;12773;50.162;8.548;2022-09-19T08:08:39;9.38;;;3.87;;
24637;SDS011;12773;50.162;8.548;2022-09-19T08:11:26;9.55;;;4.22;;
24637;SDS011;12773;50.162;8.548;2022-09-19T08:14:13;8.83;;;4.00;;
24637;SDS011;12773;50.162;8.548;2022-09-19T08:17:01;10.50;;;3.75;;
24637;SDS011;12773;50.162;8.548;2022-09-19T08:19:48;10.20;;;3.92;;
24637;SDS011;12773;50.162;8.548;2022-09-19T08:22:35;13.00;;;4.12;;
24637;SDS011;12773;50.162;8.548;2022-09-19T08:25:23;10.55;;;3.87;;
24637;SDS011;12773;50.162;8.548;2022-09-19T08:28:17;15.68;;;4.28;;
24637;SDS011;12773;50.162;8.548;2022-09-19T08:31:03;9.23;;;4.10;;
24637;SDS011;12773;50.162;8.548;2022-09-19T08:33:52;13.55;;;4.10;;
24637;SDS011;12773;50.162;8.548;2022-09-19T08:36:39;11.95;;;4.12;;
24637;SDS011;12773;50.162;8.548;2022-09-19T08:39:26;12.70;;;4.10;;
24637;SDS011;12773;50.162;8.548;2022-09-19T08:42:21;16.67;;;4.15;;
24637;SDS011;12773;50.162;8.548;2022-09-19T08:45:27;10.32;;;3.80;;
24637;SDS011;12773;50.162;8.548;2022-09-19T08:48:04;12.82;;;4.12;;
24637;SDS011;12773;50.162;8.548;2022-09-19T08:50:59;14.25;;;3.80;;
24637;SDS011;12773;50.162;8.548;2022-09-19T08:53:44;7.47;;;3.30;;
24637;SDS011;12773;50.162;8.548;2022-09-19T08:56:34;6.15;;;2.80;;
24637;SDS011;12773;50.162;8.548;2022-09-19T08:59:24;9.63;;;2.80;;
24637;SDS011;12773;50.162;8.548;2022-09-19T09:11:35;8.10;;;3.77;;
24637;SDS011;12773;50.162;8.548;2022-09-19T09:24:14;10.32;;;3.17;;
24637;SDS011;12773;50.162;8.548;2022-09-19T09:27:06;7.15;;;2.83;;
24637;SDS011;12773;50.162;8.548;2022-09-19T09:29:55;12.50;;;2.65;;
24637;SDS011;12773;50.162;8.548;2022-09-19T09:32:59;5.83;;;2.67;;
24637;SDS011;12773;50.162;8.548;2022-09-19T09:35:59;5.65;;;2.50;;
24637;SDS011;12773;50.162;8.548;2022-09-19T09:38:52;8.43;;;2.47;;
24637;SDS011;12773;50.162;8.548;2022-09-19T09:41:49;10.00;;;2.40;;
24637;SDS011;12773;50.162;8.548;2022-09-19T09:45:43;6.95;;;2.08;;
24637;SDS011;12773;50.162;8.548;2022-09-19T09:57:47;6.65;;;2.00;;
24637;SDS011;12773;50.162;8.548;2022-09-19T10:00:16;5.53;;;1.87;;
24637;SDS011;12773;50.162;8.548;2022-09-19T10:06:31;5.45;;;1.67;;
24637;SDS011;12773;50.162;8.548;2022-09-19T10:09:27;6.03;;;1.87;;
24637;SDS011;12773;50.162;8.548;2022-09-19T10:12:13;6.70;;;2.12;;
24637;SDS011;12773;50.162;8.548;2022-09-19T10:15:04;10.13;;;2.02;;
24637;SDS011;12773;50.162;8.548;2022-09-19T10:18:02;8.55;;;1.90;;
24637;SDS011;12773;50.162;8.548;2022-09-19T10:20:49;5.40;;;2.20;;
24637;SDS011;12773;50.162;8.548;2022-09-19T10:23:39;8.28;;;2.08;;
24637;SDS011;12773;50.162;8.548;2022-09-19T10:26:31;6.85;;;2.40;;
24637;SDS011;12773;50.162;8.548;2022-09-19T10:29:19;13.40;;;2.65;;
24637;SDS011;12773;50.162;8.548;2022-09-19T10:32:08;5.33;;;1.98;;
24637;SDS011;12773;50.162;8.548;2022-09-19T10:34:59;9.75;;;2.10;;
24637;SDS011;12773;50.162;8.548;2022-09-19T10:37:58;6.72;;;2.00;;
24637;SDS011;12773;50.162;8.548;2022-09-19T10:40:57;8.50;;;2.10;;
24637;SDS011;12773;50.162;8.548;2022-09-19T10:43:47;7.03;;;1.75;;
24637;SDS011;12773;50.162;8.548;2022-09-19T10:46:48;9.78;;;1.98;;
24637;SDS011;12773;50.162;8.548;2022-09-19T10:49:32;7.15;;;2.05;;
24637;SDS011;12773;50.162;8.548;2022-09-19T10:52:27;7.63;;;2.07;;
24637;SDS011;12773;50.162;8.548;2022-09-19T10:55:20;7.17;;;1.90;;
24637;SDS011;12773;50.162;8.548;2022-09-19T10:58:19;16.35;;;2.20;;
24637;SDS011;12773;50.162;8.548;2022-09-19T11:01:22;6.37;;;1.72;;
24637;SDS011;12773;50.162;8.548;2022-09-19T11:07:24;6.30;;;1.90;;
24637;SDS011;12773;50.162;8.548;2022-09-19T11:10:03;7.92;;;1.65;;
24637;SDS011;12773;50.162;8.548;2022-09-19T11:13:06;14.45;;;1.90;;
24637;SDS011;12773;50.162;8.548;2022-09-19T11:19:17;9.65;;;2.33;;
24637;SDS011;12773;50.162;8.548;2022-09-19T11:31:56;10.80;;;1.70;;
24637;SDS011;12773;50.162;8.548;2022-09-19T11:35:01;9.00;;;1.82;;
24637;SDS011;12773;50.162;8.548;2022-09-19T12:00:11;4.58;;;1.25;;
24637;SDS011;12773;50.162;8.548;2022-09-19T12:09:17;3.62;;;1.00;;
24637;SDS011;12773;50.162;8.548;2022-09-19T12:12:10;2.75;;;0.95;;
24637;SDS011;12773;50.162;8.548;2022-09-19T12:15:20;4.20;;;1.25;;
24637;SDS011;12773;50.162;8.548;2022-09-19T12:18:11;10.45;;;1.12;;
24637;SDS011;12773;50.162;8.548;2022-09-19T12:21:03;9.30;;;1.45;;
24637;SDS011;12773;50.162;8.548;2022-09-19T12:23:54;3.62;;;1.10;;
24637;SDS011;12773;50.162;8.548;2022-09-19T12:27:12;5.50;;;1.10;;
24637;SDS011;12773;50.162;8.548;2022-09-19T12:33:05;4.95;;;1.32;;
24637;SDS011;12773;50.162;8.548;2022-09-19T12:36:02;7.67;;;1.25;;
24637;SDS011;12773;50.162;8.548;2022-09-19T12:39:12;4.33;;;1.00;;
24637;SDS011;12773;50.162;8.548;2022-09-19T12:45:22;5.53;;;1.10;;
24637;SDS011;12773;50.162;8.548;2022-09-19T12:51:28;6.15;;;1.20;;
24637;SDS011;12773;50.162;8.548;2022-09-19T12:54:20;6.30;;;1.05;;
24637;SDS011;12773;50.162;8.548;2022-09-19T12:57:31;8.63;;;1.05;;
24637;SDS011;12773;50.162;8.548;2022-09-19T13:00:17;9.23;;;1.50;;
24637;SDS011;12773;50.162;8.548;2022-09-19T13:03:19;8.13;;;1.12;;
24637;SDS011;12773;50.162;8.548;2022-09-19T13:06:11;3.30;;;1.12;;
24637;SDS011;12773;50.162;8.548;2022-09-19T13:09:06;8.48;;;1.10;;
24637;SDS011;12773;50.162;8.548;2022-09-19T13:12:00;4.97;;;1.25;;
24637;SDS011;12773;50.162;8.548;2022-09-19T13:14:56;4.62;;;1.07;;
24637;SDS011;12773;50.162;8.548;2022-09-19T13:17:47;10.18;;;1.57;;
24637;SDS011;12773;50.162;8.548;2022-09-19T13:20:53;8.23;;;1.25;;
24637;SDS011;12773;50.162;8.548;2022-09-19T13:23:59;4.58;;;0.90;;
24637;SDS011;12773;50.162;8.548;2022-09-19T13:26:52;5.15;;;1.25;;
24637;SDS011;12773;50.162;8.548;2022-09-19T13:29:43;5.20;;;1.00;;
24637;SDS011;12773;50.162;8.548;2022-09-19T13:32:53;4.05;;;1.00;;
24637;SDS011;12773;50.162;8.548;2022-09-19T13:35:47;1.82;;;0.70;;
24637;SDS011;12773;50.162;8.548;2022-09-19T13:38:49;3.77;;;1.30;;
24637;SDS011;12773;50.162;8.548;2022-09-19T13:41:36;5.85;;;1.00;;
24637;SDS011;12773;50.162;8.548;2022-09-19T13:44:35;2.85;;;0.80;;
24637;SDS011;12773;50.162;8.548;2022-09-19T13:47:25;7.92;;;0.80;;
24637;SDS011;12773;50.162;8.548;2022-09-19T13:50:30;6.22;;;0.93;;
24637;SDS011;12773;50.162;8.548;2022-09-19T13:53:43;3.10;;;0.60;;
24637;SDS011;12773;50.162;8.548;2022-09-19T13:56:32;4.85;;;1.10;;
24637;SDS011;12773;50.162;8.548;2022-09-19T13:59:26;5.30;;;0.95;;
24637;SDS011;12773;50.162;8.548;2022-09-19T14:02:25;4.45;;;0.80;;
24637;SDS011;12773;50.162;8.548;2022-09-19T14:05:19;6.60;;;0.90;;
24637;SDS011;12773;50.162;8.548;2022-09-19T14:08:22;5.08;;;0.55;;
24637;SDS011;12773;50.162;8.548;2022-09-19T14:11:18;4.45;;;0.93;;
24637;SDS011;12773;50.162;8.548;2022-09-19T14:17:28;5.17;;;0.60;;
24637;SDS011;12773;50.162;8.548;2022-09-19T14:20:45;4.28;;;0.90;;
24637;SDS011;12773;50.162;8.548;2022-09-19T14:29:28;7.60;;;1.37;;
24637;SDS011;12773;50.162;8.548;2022-09-19T14:32:40;4.05;;;1.20;;
24637;SDS011;12773;50.162;8.548;2022-09-19T14:35:33;3.33;;;0.98;;
24637;SDS011;12773;50.162;8.548;2022-09-19T14:38:43;4.83;;;1.00;;
24637;SDS011;12773;50.162;8.548;2022-09-19T14:48:30;4.55;;;1.32;;
24637;SDS011;12773;50.162;8.548;2022-09-19T14:54:58;2.60;;;1.02;;
24637;SDS011;12773;50.162;8.548;2022-09-19T14:57:47;3.72;;;1.02;;
24637;SDS011;12773;50.162;8.548;2022-09-19T15:00:36;5.00;;;1.12;;
24637;SDS011;12773;50.162;8.548;2022-09-19T15:03:25;4.37;;;0.88;;
24637;SDS011;12773;50.162;8.548;2022-09-19T15:09:27;5.50;;;1.00;;
24637;SDS011;12773;50.162;8.548;2022-09-19T15:12:20;1.65;;;0.75;;
24637;SDS011;12773;50.162;8.548;2022-09-19T15:15:15;6.75;;;1.40;;
24637;SDS011;12773;50.162;8.548;2022-09-19T15:18:15;3.55;;;0.98;;
24637;SDS011;12773;50.162;8.548;2022-09-19T15:20:55;3.65;;;0.88;;
24637;SDS011;12773;50.162;8.548;2022-09-19T15:23:46;1.90;;;0.60;;
24637;SDS011;12773;50.162;8.548;2022-09-19T15:26:41;3.35;;;0.75;;
24637;SDS011;12773;50.162;8.548;2022-09-19T15:29:30;3.70;;;0.88;;
24637;SDS011;12773;50.162;8.548;2022-09-19T15:32:29;3.83;;;1.00;;
24637;SDS011;12773;50.162;8.548;2022-09-19T15:35:19;2.70;;;0.90;;
24637;SDS011;12773;50.162;8.548;2022-09-19T15:38:09;4.03;;;0.80;;
24637;SDS011;12773;50.162;8.548;2022-09-19T15:41:05;5.25;;;0.70;;
24637;SDS011;12773;50.162;8.548;2022-09-19T15:43:55;2.80;;;0.80;;
24637;SDS011;12773;50.162;8.548;2022-09-19T15:46:45;3.00;;;0.55;;
24637;SDS011;12773;50.162;8.548;2022-09-19T15:49:35;3.52;;;0.60;;
24637;SDS011;12773;50.162;8.548;2022-09-19T15:52:31;2.75;;;0.55;;
24637;SDS011;12773;50.162;8.548;2022-09-19T15:55:22;1.67;;;0.40;;
24637;SDS011;12773;50.162;8.548;2022-09-19T16:01:16;3.92;;;0.60;;
24637;SDS011;12773;50.162;8.548;2022-09-19T16:04:12;3.22;;;0.78;;
24637;SDS011;12773;50.162;8.548;2022-09-19T16:07:01;1.70;;;0.50;;
24637;SDS011;12773;50.162;8.548;2022-09-19T16:10:26;2.08;;;0.60;;
24637;SDS011;12773;50.162;8.548;2022-09-19T16:16:27;4.60;;;0.60;;
24637;SDS011;12773;50.162;8.548;2022-09-19T16:22:22;2.22;;;0.62;;
24637;SDS011;12773;50.162;8.548;2022-09-19T16:25:13;1.50;;;0.53;;
24637;SDS011;12773;50.162;8.548;2022-09-19T16:28:00;0.93;;;0.47;;
24637;SDS011;12773;50.162;8.548;2022-09-19T16:30:50;2.98;;;0.70;;
24637;SDS011;12773;50.162;8.548;2022-09-19T16:33:57;3.72;;;0.82;;
24637;SDS011;12773;50.162;8.548;2022-09-19T16:36:55;3.05;;;0.88;;
24637;SDS011;12773;50.162;8.548;2022-09-19T16:39:44;3.77;;;0.80;;
24637;SDS011;12773;50.162;8.548;2022-09-19T16:42:34;3.50;;;0.60;;
24637;SDS011;12773;50.162;8.548;2022-09-19T16:45:35;6.00;;;0.72;;
24637;SDS011;12773;50.162;8.548;2022-09-19T16:48:25;2.35;;;0.60;;
24637;SDS011;12773;50.162;8.548;2022-09-19T16:51:13;3.65;;;0.55;;
24637;SDS011;12773;50.162;8.548;2022-09-19T16:54:03;2.33;;;0.78;;
24637;SDS011;12773;50.162;8.548;2022-09-19T16:56:52;3.37;;;0.98;;
24637;SDS011;12773;50.162;8.548;2022-09-19T16:59:40;2.45;;;0.85;;
24637;SDS011;12773;50.162;8.548;2022-09-19T17:02:28;1.90;;;0.50;;
24637;SDS011;12773;50.162;8.548;2022-09-19T17:05:37;1.62;;;0.70;;
24637;SDS011;12773;50.162;8.548;2022-09-19T17:08:14;3.22;;;0.72;;
24637;SDS011;12773;50.162;8.548;2022-09-19T17:11:02;2.02;;;0.80;;
24637;SDS011;12773;50.162;8.548;2022-09-19T17:13:50;7.20;;;0.93;;
24637;SDS011;12773;50.162;8.548;2022-09-19T17:16:37;3.15;;;0.70;;
24637;SDS011;12773;50.162;8.548;2022-09-19T17:19:25;5.95;;;0.80;;
24637;SDS011;12773;50.162;8.548;2022-09-19T17:22:13;2.35;;;0.72;;
24637;SDS011;12773;50.162;8.548;2022-09-19T17:25:02;4.12;;;1.20;;
24637;SDS011;12773;50.162;8.548;2022-09-19T17:27:50;4.47;;;0.70;;
24637;SDS011;12773;50.162;8.548;2022-09-19T17:30:38;2.50;;;0.70;;
24637;SDS011;12773;50.162;8.548;2022-09-19T17:33:27;7.97;;;0.80;;
24637;SDS011;12773;50.162;8.548;2022-09-19T17:36:15;3.42;;;0.82;;
24637;SDS011;12773;50.162;8.548;2022-09-19T17:39:03;4.25;;;0.78;;
24637;SDS011;12773;50.162;8.548;2022-09-19T17:41:52;2.47;;;0.70;;
24637;SDS011;12773;50.162;8.548;2022-09-19T17:44:39;3.30;;;0.70;;
24637;SDS011;12773;50.162;8.548;2022-09-19T17:47:28;3.33;;;0.82;;
24637;SDS011;12773;50.162;8.548;2022-09-19T17:50:17;4.08;;;0.98;;
24637;SDS011;12773;50.162;8.548;2022-09-19T17:53:06;4.58;;;0.88;;
24637;SDS011;12773;50.162;8.548;2022-09-19T17:55:54;5.10;;;0.88;;
24637;SDS011;12773;50.162;8.548;2022-09-19T17:58:41;3.58;;;0.80;;
24637;SDS011;12773;50.162;8.548;2022-09-19T18:01:30;8.58;;;1.27;;
24637;SDS011;12773;50.162;8.548;2022-09-19T18:04:36;4.85;;;1.02;;
24637;SDS011;12773;50.162;8.548;2022-09-19T18:07:23;4.47;;;0.80;;
24637;SDS011;12773;50.162;8.548;2022-09-19T18:10:12;6.08;;;1.45;;
24637;SDS011;12773;50.162;8.548;2022-09-19T18:13:00;6.50;;;1.40;;
24637;SDS011;12773;50.162;8.548;2022-09-19T18:15:48;5.78;;;1.20;;
24637;SDS011;12773;50.162;8.548;2022-09-19T18:18:37;4.78;;;1.72;;
24637;SDS011;12773;50.162;8.548;2022-09-19T18:21:25;5.20;;;1.12;;
24637;SDS011;12773;50.162;8.548;2022-09-19T18:24:13;2.77;;;1.20;;
24637;SDS011;12773;50.162;8.548;2022-09-19T18:27:00;3.37;;;1.10;;
24637;SDS011;12773;50.162;8.548;2022-09-19T18:29:48;5.30;;;1.45;;
24637;SDS011;12773;50.162;8.548;2022-09-19T18:32:36;4.85;;;1.10;;
24637;SDS011;12773;50.162;8.548;2022-09-19T18:35:23;2.70;;;1.02;;
24637;SDS011;12773;50.162;8.548;2022-09-19T18:38:10;3.90;;;1.07;;
24637;SDS011;12773;50.162;8.548;2022-09-19T18:40:57;11.78;;;1.22;;
24637;SDS011;12773;50.162;8.548;2022-09-19T18:43:46;4.25;;;0.98;;
24637;SDS011;12773;50.162;8.548;2022-09-19T18:46:34;5.50;;;1.20;;
24637;SDS011;12773;50.162;8.548;2022-09-19T18:49:21;2.60;;;1.15;;
24637;SDS011;12773;50.162;8.548;2022-09-19T18:52:10;3.12;;;1.15;;
24637;SDS011;12773;50.162;8.548;2022-09-19T18:54:58;5.83;;;1.00;;
24637;SDS011;12773;50.162;8.548;2022-09-19T18:57:45;7.75;;;1.35;;
24637;SDS011;12773;50.162;8.548;2022-09-19T19:00:33;8.48;;;1.40;;
24637;SDS011;12773;50.162;8.548;2022-09-19T19:03:20;3.85;;;1.00;;
24637;SDS011;12773;50.162;8.548;2022-09-19T19:06:10;4.83;;;1.27;;
24637;SDS011;12773;50.162;8.548;2022-09-19T19:08:59;9.83;;;1.17;;
24637;SDS011;12773;50.162;8.548;2022-09-19T19:11:47;4.47;;;1.00;;
24637;SDS011;12773;50.162;8.548;2022-09-19T19:14:35;2.87;;;1.02;;
24637;SDS011;12773;50.162;8.548;2022-09-19T19:17:23;3.58;;;1.02;;
24637;SDS011;12773;50.162;8.548;2022-09-19T19:20:11;5.55;;;1.20;;
24637;SDS011;12773;50.162;8.548;2022-09-19T19:22:58;6.10;;;0.90;;
24637;SDS011;12773;50.162;8.548;2022-09-19T19:25:45;4.42;;;1.07;;
24637;SDS011;12773;50.162;8.548;2022-09-19T19:28:35;7.47;;;1.25;;
24637;SDS011;12773;50.162;8.548;2022-09-19T19:31:22;5.75;;;1.15;;